createdAt,value
2019-03-26T00:00:30.077Z,7.80
2019-03-26T00:03:02.319Z,7.27
2019-03-26T00:05:34.219Z,6.97
2019-03-26T00:08:06.118Z,8.50
2019-03-26T00:10:37.956Z,8.00
2019-03-26T00:13:09.847Z,7.20
2019-03-26T00:15:41.743Z,8.17
2019-03-26T00:18:13.666Z,7.33
2019-03-26T00:20:45.684Z,5.70
2019-03-26T00:23:18.480Z,6.50
2019-03-26T00:25:50.396Z,6.57
2019-03-26T00:28:22.248Z,7.13
2019-03-26T00:30:54.259Z,5.83
2019-03-26T00:33:35.748Z,6.27
2019-03-26T00:35:59.689Z,5.77
2019-03-26T00:38:31.743Z,6.17
2019-03-26T00:41:03.682Z,6.80
2019-03-26T00:43:35.499Z,6.43
2019-03-26T00:46:07.393Z,7.30
2019-03-26T00:48:39.314Z,7.90
2019-03-26T00:51:11.275Z,8.23
2019-03-26T00:53:43.622Z,8.13
2019-03-26T00:56:16.757Z,8.70
2019-03-26T00:58:48.633Z,6.90
2019-03-26T01:01:20.491Z,7.90
2019-03-26T01:03:54.877Z,7.87
2019-03-26T01:06:26.410Z,8.20
2019-03-26T01:08:58.354Z,8.83
2019-03-26T01:11:30.301Z,7.80
2019-03-26T01:14:02.317Z,9.37
2019-03-26T01:16:34.492Z,7.77
2019-03-26T01:19:06.275Z,7.63
2019-03-26T01:21:38.073Z,6.57
2019-03-26T01:24:12.474Z,6.40
2019-03-26T01:26:44.681Z,6.63
2019-03-26T01:29:17.044Z,7.10
2019-03-26T01:31:49.393Z,8.33
2019-03-26T01:34:21.302Z,7.30
2019-03-26T01:36:53.220Z,6.03
2019-03-26T01:39:26.228Z,5.97
2019-03-26T01:41:58.289Z,6.30
2019-03-26T01:44:31.222Z,6.13
2019-03-26T01:47:03.500Z,6.40
2019-03-26T01:49:35.391Z,5.90
2019-03-26T01:52:08.207Z,7.10
2019-03-26T01:54:40.087Z,7.33
2019-03-26T01:57:11.987Z,6.50
2019-03-26T01:59:43.822Z,7.10
2019-03-26T02:02:15.693Z,7.57
2019-03-26T02:04:59.316Z,7.03
2019-03-26T02:07:21.354Z,7.20
2019-03-26T02:09:53.288Z,7.20
2019-03-26T02:12:25.141Z,7.17
2019-03-26T02:14:57.076Z,5.90
2019-03-26T02:17:28.915Z,5.63
2019-03-26T02:20:01.000Z,6.77
2019-03-26T02:22:33.548Z,5.87
2019-03-26T02:25:06.002Z,6.93
2019-03-26T02:27:37.855Z,8.30
2019-03-26T02:30:09.833Z,7.10
2019-03-26T02:32:41.703Z,6.70
2019-03-26T02:35:18.207Z,6.60
2019-03-26T02:37:47.431Z,5.90
2019-03-26T02:40:19.617Z,6.63
2019-03-26T02:42:51.513Z,5.53
2019-03-26T02:45:23.481Z,5.67
2019-03-26T02:47:55.257Z,7.10
2019-03-26T02:50:27.121Z,8.83
2019-03-26T02:52:59.397Z,6.00
2019-03-26T02:55:31.207Z,6.70
2019-03-26T02:58:03.251Z,5.80
2019-03-26T03:00:35.010Z,5.27
2019-03-26T03:03:07.402Z,4.60
2019-03-26T03:05:40.331Z,5.23
2019-03-26T03:08:12.785Z,4.33
2019-03-26T03:10:45.016Z,4.57
2019-03-26T03:13:17.007Z,4.77
2019-03-26T03:15:49.821Z,5.13
2019-03-26T03:18:21.687Z,4.63
2019-03-26T03:20:53.922Z,3.57
2019-03-26T03:23:25.836Z,3.83
2019-03-26T03:25:57.732Z,4.67
2019-03-26T03:28:29.750Z,4.50
2019-03-26T03:31:01.717Z,3.03
2019-03-26T03:33:33.864Z,4.07
2019-03-26T03:36:06.339Z,4.23
2019-03-26T03:38:41.192Z,4.50
2019-03-26T03:41:12.221Z,5.40
2019-03-26T03:43:44.461Z,5.47
2019-03-26T03:46:16.989Z,5.90
2019-03-26T03:48:49.471Z,6.30
2019-03-26T03:51:24.134Z,7.10
2019-03-26T03:53:56.194Z,7.03
2019-03-26T03:56:29.490Z,7.33
2019-03-26T03:59:02.638Z,6.90
2019-03-26T04:01:34.470Z,7.67
2019-03-26T04:04:06.395Z,7.97
2019-03-26T04:06:38.475Z,8.40
2019-03-26T04:09:10.319Z,7.93
2019-03-26T04:11:42.376Z,8.00
2019-03-26T04:14:14.246Z,7.90
2019-03-26T04:16:47.140Z,8.27
2019-03-26T04:19:18.965Z,8.33
2019-03-26T04:21:50.843Z,9.07
2019-03-26T04:24:22.727Z,8.20
2019-03-26T04:26:54.486Z,8.93
2019-03-26T04:29:26.232Z,9.20
2019-03-26T04:31:58.463Z,9.27
2019-03-26T04:34:30.788Z,9.33
2019-03-26T04:37:02.757Z,8.77
2019-03-26T04:39:35.014Z,8.83
2019-03-26T04:42:06.874Z,8.97
2019-03-26T04:44:38.768Z,8.10
2019-03-26T04:47:10.577Z,8.63
2019-03-26T04:49:42.825Z,8.47
2019-03-26T04:52:15.116Z,8.37
2019-03-26T04:54:47.012Z,8.00
2019-03-26T04:57:18.855Z,8.50
2019-03-26T04:59:51.073Z,7.83
2019-03-26T05:02:22.892Z,8.67
2019-03-26T05:04:54.880Z,8.20
2019-03-26T05:07:26.884Z,7.87
2019-03-26T05:09:59.262Z,8.67
2019-03-26T05:12:31.534Z,7.93
2019-03-26T05:15:04.640Z,8.47
2019-03-26T05:17:36.508Z,8.23
2019-03-26T05:20:08.674Z,8.83
2019-03-26T05:22:40.540Z,8.63
2019-03-26T05:25:12.655Z,8.63
2019-03-26T05:27:45.834Z,9.00
2019-03-26T05:30:17.809Z,8.73
2019-03-26T05:32:49.617Z,9.80
2019-03-26T05:35:22.810Z,10.50
2019-03-26T05:37:55.111Z,10.73
2019-03-26T05:40:27.081Z,10.07
2019-03-26T05:42:59.096Z,8.43
2019-03-26T05:45:31.009Z,8.93
2019-03-26T05:48:02.892Z,8.33
2019-03-26T05:50:34.825Z,8.60
2019-03-26T05:53:06.624Z,9.53
2019-03-26T05:55:38.566Z,8.17
2019-03-26T05:58:10.487Z,8.03
2019-03-26T06:00:42.432Z,8.43
2019-03-26T06:03:14.525Z,8.13
2019-03-26T06:05:46.514Z,7.73
2019-03-26T06:08:19.372Z,8.27
2019-03-26T06:10:51.159Z,7.97
2019-03-26T06:13:23.055Z,8.50
2019-03-26T06:15:55.883Z,9.37
2019-03-26T06:18:27.797Z,9.13
2019-03-26T06:21:00.182Z,6.83
2019-03-26T06:23:32.080Z,6.70
2019-03-26T06:26:03.934Z,6.40
2019-03-26T06:28:35.808Z,6.27
2019-03-26T06:31:07.794Z,5.03
2019-03-26T06:33:40.410Z,6.17
2019-03-26T06:36:12.806Z,5.80
2019-03-26T06:38:44.989Z,5.17
2019-03-26T06:41:17.242Z,4.77
2019-03-26T06:43:49.374Z,4.73
2019-03-26T06:46:21.830Z,4.20
2019-03-26T06:48:54.711Z,4.80
2019-03-26T06:51:26.560Z,4.13
2019-03-26T06:53:58.476Z,4.53
2019-03-26T06:56:30.326Z,4.00
2019-03-26T06:59:02.502Z,4.43
2019-03-26T07:01:35.077Z,5.13
2019-03-26T07:04:07.376Z,4.50
2019-03-26T07:06:39.406Z,4.27
2019-03-26T07:09:11.290Z,4.43
2019-03-26T07:11:43.220Z,4.60
2019-03-26T07:14:15.427Z,4.50
2019-03-26T07:16:47.349Z,4.83
2019-03-26T07:19:19.213Z,4.47
2019-03-26T07:21:51.023Z,5.07
2019-03-26T07:24:22.897Z,5.47
2019-03-26T07:26:55.347Z,4.40
2019-03-26T07:29:27.182Z,4.70
2019-03-26T07:31:59.566Z,5.30
2019-03-26T07:34:31.433Z,5.70
2019-03-26T07:37:03.245Z,4.50
2019-03-26T07:39:35.094Z,4.20
2019-03-26T07:42:08.486Z,4.93
2019-03-26T07:44:40.351Z,4.90
2019-03-26T07:47:12.476Z,4.00
2019-03-26T07:49:44.729Z,4.77
2019-03-26T07:52:18.584Z,5.23
2019-03-26T07:54:51.091Z,4.80
2019-03-26T07:57:23.434Z,4.90
2019-03-26T07:59:55.967Z,4.73
2019-03-26T08:02:27.851Z,6.30
2019-03-26T08:04:59.799Z,3.90
2019-03-26T08:07:31.651Z,6.80
2019-03-26T08:10:03.760Z,4.87
2019-03-26T08:12:35.575Z,3.70
2019-03-26T08:15:08.140Z,3.10
2019-03-26T08:17:40.642Z,2.90
2019-03-26T08:20:12.968Z,2.53
2019-03-26T08:22:45.011Z,3.27
2019-03-26T08:25:16.911Z,3.00
2019-03-26T08:27:48.799Z,2.80
2019-03-26T08:30:20.700Z,2.83
2019-03-26T08:32:52.778Z,2.30
2019-03-26T08:35:24.701Z,2.30
2019-03-26T08:37:56.655Z,2.73
2019-03-26T08:40:28.729Z,3.20
2019-03-26T08:43:00.673Z,2.63
2019-03-26T08:45:32.575Z,2.83
2019-03-26T08:48:04.639Z,2.70
2019-03-26T08:50:37.101Z,2.50
2019-03-26T08:53:08.941Z,2.33
2019-03-26T08:55:40.810Z,2.47
2019-03-26T08:58:12.733Z,2.93
2019-03-26T09:00:44.634Z,2.60
2019-03-26T09:03:16.950Z,2.20
2019-03-26T09:05:49.240Z,2.70
2019-03-26T09:08:25.513Z,2.40
2019-03-26T09:10:56.120Z,3.10
2019-03-26T09:13:28.306Z,2.93
2019-03-26T09:16:00.335Z,2.40
2019-03-26T09:18:32.183Z,2.80
2019-03-26T09:21:03.999Z,2.97
2019-03-26T09:23:35.962Z,2.53
2019-03-26T09:26:07.852Z,2.30
2019-03-26T09:28:39.743Z,2.50
2019-03-26T09:31:11.664Z,2.67
2019-03-26T09:33:44.236Z,2.80
2019-03-26T09:36:16.154Z,3.00
2019-03-26T09:38:48.039Z,3.13
2019-03-26T09:41:20.195Z,3.67
2019-03-26T09:43:52.493Z,3.07
2019-03-26T09:46:24.288Z,3.07
2019-03-26T09:48:56.761Z,4.10
2019-03-26T09:51:29.107Z,3.37
2019-03-26T09:54:01.537Z,3.27
2019-03-26T09:56:33.342Z,3.07
2019-03-26T09:59:05.198Z,3.07
2019-03-26T10:01:37.216Z,3.27
2019-03-26T10:04:09.489Z,3.27
2019-03-26T10:06:41.481Z,2.90
2019-03-26T10:09:13.746Z,2.40
2019-03-26T10:11:46.302Z,2.53
2019-03-26T10:14:18.191Z,3.10
2019-03-26T10:16:50.091Z,2.33
2019-03-26T10:19:21.975Z,3.10
2019-03-26T10:21:53.852Z,2.60
2019-03-26T10:24:25.792Z,2.10
2019-03-26T10:26:57.707Z,2.63
2019-03-26T10:29:31.227Z,3.00
2019-03-26T10:32:03.135Z,2.07
2019-03-26T10:34:36.579Z,2.47
2019-03-26T10:37:08.806Z,2.37
2019-03-26T10:39:41.068Z,2.00
2019-03-26T10:42:12.966Z,1.57
2019-03-26T10:44:45.680Z,1.60
2019-03-26T10:47:17.728Z,1.53
2019-03-26T10:49:49.528Z,1.60
2019-03-26T10:52:21.796Z,2.33
2019-03-26T10:54:53.858Z,1.53
2019-03-26T10:57:25.961Z,1.50
2019-03-26T10:59:58.381Z,1.50
2019-03-26T11:02:30.395Z,1.50
2019-03-26T11:05:02.377Z,1.57
2019-03-26T11:07:34.429Z,1.30
2019-03-26T11:10:09.377Z,1.10
2019-03-26T11:12:42.974Z,1.47
2019-03-26T11:15:14.866Z,1.03
2019-03-26T11:17:46.847Z,1.40
2019-03-26T11:20:19.012Z,1.70
2019-03-26T11:22:50.918Z,1.40
2019-03-26T11:25:22.824Z,1.50
2019-03-26T11:27:54.784Z,1.50
2019-03-26T11:30:26.712Z,1.60
2019-03-26T11:32:58.714Z,1.60
2019-03-26T11:35:30.585Z,1.70
2019-03-26T11:38:02.726Z,1.60
2019-03-26T11:40:35.022Z,1.77
2019-03-26T11:43:06.869Z,2.00
2019-03-26T11:45:38.818Z,2.63
2019-03-26T11:48:10.687Z,1.93
2019-03-26T11:50:42.614Z,1.37
2019-03-26T11:53:16.110Z,1.70
2019-03-26T11:55:48.015Z,1.80
2019-03-26T11:58:29.931Z,1.60
2019-03-26T12:00:53.378Z,1.33
2019-03-26T12:03:25.242Z,1.03
2019-03-26T12:05:57.096Z,1.10
2019-03-26T12:08:29.196Z,1.10
2019-03-26T12:11:01.057Z,1.20
2019-03-26T12:13:33.102Z,1.10
2019-03-26T12:16:04.874Z,1.70
2019-03-26T12:18:36.935Z,1.33
2019-03-26T12:21:08.764Z,1.40
2019-03-26T12:23:40.721Z,1.30
2019-03-26T12:26:12.604Z,1.20
2019-03-26T12:28:44.579Z,1.43
2019-03-26T12:31:16.741Z,1.20
2019-03-26T12:33:48.647Z,1.07
2019-03-26T12:36:20.523Z,1.30
2019-03-26T12:38:52.509Z,1.10
2019-03-26T12:41:24.463Z,1.70
2019-03-26T12:43:56.331Z,1.10
2019-03-26T12:46:28.253Z,1.60
2019-03-26T12:49:00.621Z,2.20
2019-03-26T12:51:32.532Z,1.53
2019-03-26T12:54:05.407Z,2.57
2019-03-26T12:56:38.051Z,1.20
2019-03-26T12:59:09.939Z,0.90
2019-03-26T13:01:42.381Z,0.90
2019-03-26T13:04:16.749Z,1.23
2019-03-26T13:06:48.257Z,1.10
2019-03-26T13:09:20.245Z,1.27
2019-03-26T13:11:52.282Z,0.93
2019-03-26T13:14:25.794Z,1.40
2019-03-26T13:16:58.352Z,1.33
2019-03-26T13:19:30.706Z,1.80
2019-03-26T13:22:03.044Z,1.43
2019-03-26T13:24:35.296Z,1.97
2019-03-26T13:27:08.171Z,1.70
2019-03-26T13:29:40.202Z,1.93
2019-03-26T13:32:13.157Z,1.00
2019-03-26T13:34:45.508Z,1.03
2019-03-26T13:37:17.354Z,1.30
2019-03-26T13:39:49.426Z,1.20
2019-03-26T13:42:21.515Z,1.30
2019-03-26T13:44:53.754Z,1.00
2019-03-26T13:47:25.924Z,1.50
2019-03-26T13:49:58.184Z,1.50
2019-03-26T13:52:30.378Z,3.97
2019-03-26T13:55:02.344Z,2.00
2019-03-26T13:57:36.643Z,1.57
2019-03-26T14:00:09.865Z,2.23
2019-03-26T14:02:42.332Z,1.50
2019-03-26T14:05:24.678Z,1.30
2019-03-26T14:07:57.519Z,1.20
2019-03-26T14:10:40.247Z,1.20
2019-03-26T14:13:04.034Z,1.03
2019-03-26T14:15:36.047Z,1.17
2019-03-26T14:18:08.675Z,1.37
2019-03-26T14:20:40.541Z,1.23
2019-03-26T14:23:12.906Z,2.27
2019-03-26T14:25:45.026Z,1.03
2019-03-26T14:28:17.409Z,1.30
2019-03-26T14:30:50.224Z,1.63
2019-03-26T14:33:22.175Z,1.50
2019-03-26T14:35:54.145Z,1.60
2019-03-26T14:38:26.057Z,1.73
2019-03-26T14:40:58.146Z,0.97
2019-03-26T14:43:30.344Z,1.30
2019-03-26T14:46:03.086Z,1.20
2019-03-26T14:48:35.049Z,1.27
2019-03-26T14:51:06.978Z,1.13
2019-03-26T14:53:38.941Z,1.23
2019-03-26T14:56:10.864Z,1.17
2019-03-26T14:58:42.849Z,3.70
2019-03-26T15:01:14.685Z,3.57
2019-03-26T15:03:46.793Z,2.00
2019-03-26T15:06:18.865Z,1.90
2019-03-26T15:08:50.878Z,1.60
2019-03-26T15:11:24.320Z,1.37
2019-03-26T15:13:56.636Z,1.50
2019-03-26T15:16:30.108Z,1.30
2019-03-26T15:19:02.402Z,1.43
2019-03-26T15:21:34.387Z,2.00
2019-03-26T15:24:06.535Z,1.53
2019-03-26T15:26:38.592Z,1.30
2019-03-26T15:29:10.715Z,1.93
2019-03-26T15:31:42.992Z,1.80
2019-03-26T15:34:15.036Z,1.33
2019-03-26T15:36:47.819Z,1.30
2019-03-26T15:39:19.781Z,1.40
2019-03-26T15:41:51.856Z,1.70
2019-03-26T15:44:23.988Z,2.60
2019-03-26T15:46:56.829Z,1.90
2019-03-26T15:49:29.214Z,2.87
2019-03-26T15:52:03.299Z,2.17
2019-03-26T15:54:35.392Z,1.50
2019-03-26T15:57:07.366Z,3.13
2019-03-26T15:59:39.260Z,6.33
2019-03-26T16:02:11.118Z,3.80
2019-03-26T16:04:43.203Z,1.60
2019-03-26T16:07:15.788Z,2.53
2019-03-26T16:09:48.125Z,4.00
2019-03-26T16:12:20.013Z,1.97
2019-03-26T16:14:52.049Z,3.20
2019-03-26T16:17:23.943Z,2.10
2019-03-26T16:19:55.840Z,2.00
2019-03-26T16:22:28.030Z,2.62
2019-03-26T16:25:00.586Z,2.10
2019-03-26T16:27:32.665Z,2.30
2019-03-26T16:30:04.977Z,2.63
2019-03-26T16:32:36.975Z,1.70
2019-03-26T16:35:10.137Z,1.90
2019-03-26T16:37:42.020Z,2.00
2019-03-26T16:40:15.929Z,2.40
2019-03-26T16:42:47.979Z,2.20
2019-03-26T16:45:19.983Z,2.50
2019-03-26T16:47:53.043Z,2.40
2019-03-26T16:50:25.784Z,1.80
2019-03-26T16:52:57.750Z,2.33
2019-03-26T16:55:29.572Z,1.80
2019-03-26T16:58:01.789Z,2.57
2019-03-26T17:00:34.764Z,2.13
2019-03-26T17:03:07.445Z,2.40
2019-03-26T17:05:39.530Z,2.10
2019-03-26T17:08:11.540Z,2.30
2019-03-26T17:10:43.521Z,2.60
2019-03-26T17:13:15.516Z,2.30
2019-03-26T17:15:48.225Z,3.37
2019-03-26T17:18:20.993Z,2.60
2019-03-26T17:20:52.929Z,3.07
2019-03-26T17:23:24.798Z,2.57
2019-03-26T17:25:56.681Z,2.40
2019-03-26T17:28:29.732Z,2.80
2019-03-26T17:31:01.746Z,2.63
2019-03-26T17:33:34.606Z,2.50
2019-03-26T17:36:06.641Z,2.53
2019-03-26T17:38:38.459Z,2.80
2019-03-26T17:41:11.039Z,3.50
2019-03-26T17:43:43.241Z,2.33
2019-03-26T17:46:15.288Z,3.73
2019-03-26T17:48:47.233Z,3.10
2019-03-26T17:51:19.180Z,3.23
2019-03-26T17:53:51.842Z,3.63
2019-03-26T17:56:23.839Z,3.87
2019-03-26T17:58:56.405Z,3.47
2019-03-26T18:01:29.429Z,3.67
2019-03-26T18:04:01.453Z,4.70
2019-03-26T18:06:33.336Z,7.97
2019-03-26T18:09:07.185Z,5.60
2019-03-26T18:11:39.061Z,5.80
2019-03-26T18:14:10.986Z,5.43
2019-03-26T18:16:43.042Z,5.13
2019-03-26T18:19:15.042Z,4.00
2019-03-26T18:21:51.852Z,6.03
2019-03-26T18:24:20.592Z,8.83
2019-03-26T18:26:52.707Z,6.47
2019-03-26T18:29:24.939Z,4.50
2019-03-26T18:31:56.867Z,5.47
2019-03-26T18:34:29.521Z,7.93
2019-03-26T18:37:01.576Z,13.07
2019-03-26T18:39:33.468Z,4.93
2019-03-26T18:42:05.438Z,5.30
2019-03-26T18:44:37.343Z,6.83
2019-03-26T18:47:09.474Z,4.20
2019-03-26T18:49:41.798Z,4.87
2019-03-26T18:52:14.645Z,4.93
2019-03-26T18:54:46.678Z,4.00
2019-03-26T18:57:18.680Z,6.80
2019-03-26T18:59:50.687Z,5.43
2019-03-26T19:02:22.646Z,4.40
2019-03-26T19:04:54.578Z,6.03
2019-03-26T19:07:27.819Z,6.90
2019-03-26T19:09:59.663Z,5.67
2019-03-26T19:12:31.651Z,4.93
2019-03-26T19:15:03.514Z,5.40
2019-03-26T19:17:36.041Z,6.40
2019-03-26T19:20:08.523Z,5.80
2019-03-26T19:22:40.528Z,5.73
2019-03-26T19:25:12.379Z,7.27
2019-03-26T19:27:44.654Z,6.90
2019-03-26T19:30:17.175Z,6.20
2019-03-26T19:32:49.099Z,6.30
2019-03-26T19:35:22.910Z,6.40
2019-03-26T19:37:54.835Z,6.47
2019-03-26T19:40:26.775Z,7.47
2019-03-26T19:43:10.220Z,7.00
2019-03-26T19:45:32.852Z,8.10
2019-03-26T19:48:04.842Z,8.30
2019-03-26T19:50:36.650Z,7.70
2019-03-26T19:53:09.653Z,7.60
2019-03-26T19:55:41.945Z,8.30
2019-03-26T19:58:14.342Z,8.53
2019-03-26T20:00:47.719Z,9.03
2019-03-26T20:03:19.728Z,7.20
2019-03-26T20:05:52.339Z,7.27
2019-03-26T20:08:25.658Z,6.37
2019-03-26T20:10:57.465Z,6.73
2019-03-26T20:13:29.301Z,8.20
2019-03-26T20:16:01.276Z,9.23
2019-03-26T20:18:34.136Z,10.23
2019-03-26T20:21:06.859Z,10.43
2019-03-26T20:23:39.493Z,9.73
2019-03-26T20:26:11.712Z,7.30
2019-03-26T20:28:43.607Z,7.40
2019-03-26T20:31:16.651Z,7.07
2019-03-26T20:33:48.603Z,9.10
2019-03-26T20:36:20.888Z,8.50
2019-03-26T20:38:53.327Z,7.93
2019-03-26T20:41:25.885Z,7.17
2019-03-26T20:43:58.273Z,7.60
2019-03-26T20:46:30.262Z,7.47
2019-03-26T20:49:02.242Z,9.20
2019-03-26T20:51:34.172Z,13.17
2019-03-26T20:54:06.275Z,7.87
2019-03-26T20:56:40.794Z,6.67
2019-03-26T20:59:12.304Z,7.10
2019-03-26T21:01:45.568Z,8.17
2019-03-26T21:04:17.670Z,8.57
2019-03-26T21:06:49.591Z,8.73
2019-03-26T21:09:21.912Z,10.93
2019-03-26T21:11:54.119Z,9.17
2019-03-26T21:14:25.985Z,10.93
2019-03-26T21:16:57.999Z,9.83
2019-03-26T21:19:30.038Z,8.97
2019-03-26T21:22:01.910Z,9.67
2019-03-26T21:24:34.045Z,10.07
2019-03-26T21:27:06.093Z,11.43
2019-03-26T21:29:37.953Z,14.23
2019-03-26T21:32:09.924Z,15.17
2019-03-26T21:34:41.890Z,14.57
2019-03-26T21:37:14.452Z,14.03
2019-03-26T21:39:46.739Z,12.03
2019-03-26T21:42:19.360Z,12.33
2019-03-26T21:44:51.571Z,13.10
2019-03-26T21:47:23.848Z,11.93
2019-03-26T21:49:55.689Z,9.97
2019-03-26T21:52:27.741Z,9.23
2019-03-26T21:54:59.613Z,10.23
2019-03-26T21:57:31.539Z,10.30
2019-03-26T22:00:03.455Z,10.20
2019-03-26T22:02:37.034Z,10.97
2019-03-26T22:05:09.627Z,12.13
2019-03-26T22:07:41.561Z,12.77
2019-03-26T22:10:15.518Z,13.47
2019-03-26T22:12:47.320Z,13.37
2019-03-26T22:15:19.382Z,11.30
2019-03-26T22:17:51.438Z,11.27
2019-03-26T22:20:23.305Z,12.43
2019-03-26T22:22:55.319Z,13.07
2019-03-26T22:25:27.368Z,9.57
2019-03-26T22:27:59.270Z,9.13
2019-03-26T22:30:31.131Z,10.83
2019-03-26T22:33:03.101Z,10.37
2019-03-26T22:35:36.261Z,10.00
2019-03-26T22:38:08.375Z,10.23
2019-03-26T22:40:40.247Z,10.27
2019-03-26T22:43:12.843Z,10.10
2019-03-26T22:45:46.357Z,9.07
2019-03-26T22:48:20.446Z,9.33
2019-03-26T22:50:53.994Z,8.80
2019-03-26T22:53:25.831Z,9.80
2019-03-26T22:55:57.638Z,10.57
2019-03-26T22:58:29.538Z,10.33
2019-03-26T23:01:01.361Z,10.40
2019-03-26T23:03:34.944Z,11.87
2019-03-26T23:08:37.748Z,10.97
2019-03-26T23:11:10.869Z,9.73
2019-03-26T23:13:43.145Z,9.00
2019-03-26T23:16:15.579Z,8.93
2019-03-26T23:18:48.157Z,7.70
2019-03-26T23:21:20.133Z,7.53
2019-03-26T23:23:53.268Z,7.60
2019-03-26T23:26:25.282Z,6.60
2019-03-26T23:28:57.290Z,6.77
2019-03-26T23:31:29.100Z,6.73
2019-03-26T23:34:02.075Z,7.83
2019-03-26T23:36:34.160Z,8.20
2019-03-26T23:39:06.828Z,8.97
2019-03-26T23:41:39.953Z,8.30
2019-03-26T23:44:24.973Z,7.83
2019-03-26T23:46:45.787Z,8.60
2019-03-26T23:49:17.758Z,7.83
2019-03-26T23:51:50.132Z,8.33
2019-03-26T23:54:22.115Z,6.40
2019-03-26T23:56:54.126Z,6.93
2019-03-26T23:59:26.140Z,6.93
